Airfield :
LOGIN :

Register | Disclaimer

   EN    FR    IT 

 










Legend :    VFR   Marginal VFR   IFR   Intensive IFR   Very Intensive IFR
Visi :
Ceiling :
>= 8 km
>= 3000ft
5 to 8 km
1000 to 3000 ft
1500m to 5 km
500 to 1000 ft
800 to 1500m
200 to 500 ft
< 800m
< 200 ft
Symbols :   Thunderstorms  Fog  Heavy snow  Heavy precipitations  Wind > 20 kt
SIGMETs :     Misc.  Thunderstorms  Icing  Turbulence  Mountain Waves  Volcanic Ashes







- Airport Elevation : 87 ft
- IATA code : FSC
- Download approach charts


LFKF - Figari

CURRENT METAR :
  • 201330Z AUTO 06012KT 020V090 CAVOK 28/17 Q1015 TEMPO SCT030 FEW040TCU

EXPIRED METARs :
  • 201300Z AUTO 06012KT 030V090 CAVOK 27/17 Q1016 TEMPO SCT030 FEW040TCU
  • 201230Z AUTO 07014KT 040V110 CAVOK 27/17 Q1016 TEMPO SCT030 FEW040TCU
  • 201200Z AUTO 07012KT 030V120 CAVOK 28/18 Q1016 TEMPO SCT030 FEW040TCU
  • 201130Z AUTO 06011KT 020V090 CAVOK 28/19 Q1016 TEMPO SCT030 FEW040TCU
  • 201100Z AUTO 06012KT 010V100 CAVOK 28/19 Q1016 TEMPO SCT030 FEW040TCU

TAF TAF LFKF
Valid from the 20 at 09:00 until the 21 at 09:00 UTC


200800Z 2009/2109 06010KT 9999 FEW030
TEMPO 2011/2016 SCT030 FEW040TCU
BECMG 2019/2021 05004KT
No reported NOTAMs for that airfield.



MET'MAP, your aeronautical weather chart ! - Copyright ORBIFLY December 2007 - Disclaimer

ORBIFLY MET'MAP TEAM :

Programming & Development : Alexandra Zaïnal
Concept & Development : Baudouin d'Aumeries
Co-Development & Prog : Marc-Olivier Méhu
Technical & hardware support : Manuel Goepfert

Contact : metmap@orbifly.com




SOURCES & CREDITS :

   NOAA